createdAt,value
2022-08-05T00:00:18.918Z,26.62
2022-08-05T00:02:51.089Z,26.66
2022-08-05T00:06:03.253Z,26.72
2022-08-05T00:08:34.157Z,26.64
2022-08-05T00:11:00.923Z,26.67
2022-08-05T00:13:39.620Z,26.62
2022-08-05T00:16:12.656Z,26.61
2022-08-05T00:18:44.512Z,26.60
2022-08-05T00:21:14.711Z,26.51
2022-08-05T00:24:05.063Z,26.56
2022-08-05T00:26:33.837Z,26.52
2022-08-05T00:29:01.069Z,26.50
2022-08-05T00:31:52.943Z,26.37
2022-08-05T00:34:56.930Z,26.40
2022-08-05T00:37:09.902Z,26.29
2022-08-05T00:39:58.765Z,26.29
2022-08-05T00:42:40.031Z,26.21
2022-08-05T00:45:11.739Z,26.14
2022-08-05T00:47:57.002Z,25.95
2022-08-05T00:50:25.841Z,25.86
2022-08-05T00:52:55.046Z,25.86
2022-08-05T00:55:34.047Z,25.90
2022-08-05T00:58:14.201Z,25.94
2022-08-05T01:00:42.043Z,25.91
2022-08-05T01:03:12.688Z,25.90
2022-08-05T01:05:54.582Z,25.85
2022-08-05T01:08:41.598Z,25.82
2022-08-05T01:11:21.793Z,25.86
2022-08-05T01:14:08.627Z,25.85
2022-08-05T01:17:07.631Z,25.84
2022-08-05T01:20:02.000Z,25.71
2022-08-05T01:23:00.605Z,25.77
2022-08-05T01:26:26.224Z,25.73
2022-08-05T01:29:13.745Z,25.67
2022-08-05T01:31:58.894Z,25.55
2022-08-05T01:34:35.898Z,25.54
2022-08-05T01:37:24.575Z,25.54
2022-08-05T01:39:59.215Z,25.59
2022-08-05T01:42:31.399Z,25.55
2022-08-05T01:45:02.438Z,25.58
2022-08-05T01:47:38.808Z,25.52
2022-08-05T01:50:18.734Z,25.48
2022-08-05T01:53:05.377Z,25.40
2022-08-05T01:55:37.450Z,25.41
2022-08-05T01:58:15.754Z,25.53
2022-08-05T02:00:50.952Z,25.48
2022-08-05T02:03:41.029Z,25.48
2022-08-05T02:06:33.407Z,25.42
2022-08-05T02:08:59.267Z,25.35
2022-08-05T02:11:37.567Z,25.36
2022-08-05T02:14:17.439Z,25.24
2022-08-05T02:16:52.168Z,25.38
2022-08-05T02:19:46.960Z,25.37
2022-08-05T02:22:31.652Z,25.30
2022-08-05T02:25:08.670Z,25.24
2022-08-05T02:27:58.378Z,25.24
2022-08-05T02:30:38.231Z,25.21
2022-08-05T02:33:24.325Z,25.12
2022-08-05T02:35:59.094Z,25.03
2022-08-05T02:38:35.080Z,24.90
2022-08-05T02:41:28.370Z,24.98
2022-08-05T02:44:06.054Z,25.04
2022-08-05T02:46:53.102Z,24.92
2022-08-05T02:49:37.079Z,25.01
2022-08-05T02:52:30.077Z,24.89
2022-08-05T02:55:05.369Z,24.89
2022-08-05T02:58:10.567Z,24.80
2022-08-05T03:00:23.085Z,24.76
2022-08-05T03:02:54.788Z,24.67
2022-08-05T03:06:54.300Z,24.61
2022-08-05T03:08:12.345Z,24.27
2022-08-05T03:11:00.927Z,24.24
2022-08-05T03:13:51.987Z,24.11
2022-08-05T03:16:21.212Z,24.06
2022-08-05T03:18:49.419Z,24.02
2022-08-05T03:21:16.770Z,23.95
2022-08-05T03:23:45.607Z,23.91
2022-08-05T03:26:31.059Z,23.18
2022-08-05T03:29:01.621Z,23.78
2022-08-05T03:31:55.598Z,23.63
2022-08-05T03:34:18.075Z,23.71
2022-08-05T03:36:45.929Z,23.75
2022-08-05T03:39:20.080Z,23.76
2022-08-05T03:41:56.287Z,23.83
2022-08-05T03:44:25.330Z,23.81
2022-08-05T03:46:56.513Z,23.81
2022-08-05T03:49:24.220Z,23.89
2022-08-05T03:52:50.587Z,23.90
2022-08-05T03:56:05.556Z,23.85
2022-08-05T03:57:53.171Z,23.72
2022-08-05T04:00:26.633Z,23.70
2022-08-05T04:02:59.218Z,23.80
2022-08-05T04:05:33.394Z,23.80
2022-08-05T04:08:14.560Z,23.91
2022-08-05T04:10:45.243Z,23.94
2022-08-05T04:13:13.326Z,24.05
2022-08-05T04:16:03.373Z,24.11
2022-08-05T04:18:30.125Z,24.14
2022-08-05T04:20:59.116Z,23.94
2022-08-05T04:24:05.977Z,24.17
2022-08-05T04:26:17.448Z,24.19
2022-08-05T04:28:51.108Z,24.21
2022-08-05T04:31:20.401Z,24.16
2022-08-05T04:34:19.158Z,24.23
2022-08-05T04:36:46.590Z,24.17
2022-08-05T04:39:21.700Z,24.15
2022-08-05T04:41:51.006Z,24.07
2022-08-05T04:44:29.020Z,24.09
2022-08-05T04:47:09.789Z,23.96
2022-08-05T04:50:01.381Z,24.14
2022-08-05T04:52:27.362Z,24.15
2022-08-05T04:54:57.298Z,24.08
2022-08-05T04:57:28.667Z,24.00
2022-08-05T04:59:58.523Z,24.11
2022-08-05T05:02:41.277Z,24.24
2022-08-05T05:05:26.642Z,24.12
2022-08-05T05:08:14.465Z,24.12
2022-08-05T05:10:59.087Z,24.12
2022-08-05T05:13:32.289Z,24.06
2022-08-05T05:16:10.944Z,24.16
2022-08-05T05:18:38.922Z,24.09
2022-08-05T05:21:06.406Z,24.05
2022-08-05T05:24:02.044Z,24.07
2022-08-05T05:26:28.753Z,24.15
2022-08-05T05:29:00.700Z,24.04
2022-08-05T05:31:35.998Z,24.07
2022-08-05T05:34:02.167Z,24.06
2022-08-05T05:36:31.993Z,24.02
2022-08-05T05:38:59.427Z,23.98
2022-08-05T05:41:40.425Z,24.12
2022-08-05T05:44:34.469Z,24.07
2022-08-05T05:46:58.056Z,23.99
2022-08-05T05:49:26.165Z,24.16
2022-08-05T05:51:54.926Z,24.27
2022-08-05T05:54:22.268Z,24.28
2022-08-05T05:57:13.515Z,24.15
2022-08-05T05:59:41.348Z,24.26
2022-08-05T06:02:10.707Z,24.19
2022-08-05T06:04:38.153Z,24.07
2022-08-05T06:07:05.256Z,24.04
2022-08-05T06:09:50.231Z,24.01
2022-08-05T06:12:19.884Z,23.98
2022-08-05T06:14:48.889Z,23.92
2022-08-05T06:17:22.419Z,23.90
2022-08-05T06:19:57.103Z,23.89
2022-08-05T06:22:35.093Z,23.97
2022-08-05T06:25:25.028Z,24.12
2022-08-05T06:28:11.136Z,24.06
2022-08-05T06:30:38.769Z,24.14
2022-08-05T06:33:09.981Z,24.14
2022-08-05T06:36:06.812Z,24.21
2022-08-05T06:38:35.811Z,24.34
2022-08-05T06:41:07.657Z,24.32
2022-08-05T06:43:58.163Z,24.41
2022-08-05T06:46:23.037Z,24.34
2022-08-05T06:48:59.279Z,24.29
2022-08-05T06:51:31.034Z,24.19
2022-08-05T06:54:04.273Z,24.29
2022-08-05T06:56:34.397Z,24.41
2022-08-05T06:59:09.639Z,24.33
2022-08-05T07:01:40.769Z,24.22
2022-08-05T07:04:09.795Z,24.15
2022-08-05T07:06:37.205Z,24.11
2022-08-05T07:09:05.022Z,24.07
2022-08-05T07:11:37.053Z,23.99
2022-08-05T07:14:30.099Z,24.14
2022-08-05T07:18:01.835Z,24.06
2022-08-05T07:22:39.690Z,23.94
2022-08-05T07:25:22.493Z,23.96
2022-08-05T07:28:03.767Z,23.95
2022-08-05T07:30:38.840Z,23.87
2022-08-05T07:33:15.543Z,23.82
2022-08-05T07:36:04.265Z,23.87
2022-08-05T07:38:43.307Z,23.91
2022-08-05T07:42:13.615Z,23.83
2022-08-05T07:44:14.033Z,23.88
2022-08-05T07:46:49.749Z,23.87
2022-08-05T07:49:19.006Z,23.69
2022-08-05T07:51:53.734Z,23.89
2022-08-05T07:54:30.749Z,23.90
2022-08-05T07:57:23.666Z,23.90
2022-08-05T07:59:51.807Z,23.84
2022-08-05T08:02:26.677Z,23.81
2022-08-05T08:04:59.440Z,23.89
2022-08-05T08:07:29.218Z,23.85
2022-08-05T08:10:07.421Z,23.90
2022-08-05T08:12:49.236Z,23.88
2022-08-05T08:15:17.291Z,23.76
2022-08-05T08:17:49.914Z,23.63
2022-08-05T08:21:00.547Z,23.44
2022-08-05T08:23:11.814Z,23.29
2022-08-05T08:26:02.892Z,23.22
2022-08-05T08:28:35.600Z,23.12
2022-08-05T08:31:09.555Z,23.12
2022-08-05T08:33:51.717Z,23.11
2022-08-05T08:36:39.284Z,23.15
2022-08-05T08:39:14.962Z,23.36
2022-08-05T08:41:51.361Z,23.22
2022-08-05T08:45:19.799Z,23.37
2022-08-05T08:48:05.860Z,23.58
2022-08-05T08:50:30.873Z,23.67
2022-08-05T08:53:12.011Z,23.76
2022-08-05T08:56:04.560Z,23.89
2022-08-05T08:58:37.198Z,23.94
2022-08-05T09:01:18.283Z,24.15
2022-08-05T09:03:54.517Z,24.28
2022-08-05T09:06:27.965Z,24.25
2022-08-05T09:09:01.129Z,24.28
2022-08-05T09:11:52.037Z,23.98
2022-08-05T09:14:56.854Z,23.75
2022-08-05T09:17:40.052Z,23.61
2022-08-05T09:20:02.468Z,23.55
2022-08-05T09:23:19.431Z,23.58
2022-08-05T09:26:01.997Z,23.60
2022-08-05T09:28:34.944Z,23.65
2022-08-05T09:31:43.863Z,23.61
2022-08-05T09:34:10.345Z,23.64
2022-08-05T09:36:56.100Z,23.55
2022-08-05T09:39:45.863Z,23.51
2022-08-05T09:42:24.557Z,23.53
2022-08-05T09:45:03.304Z,23.50
2022-08-05T09:47:55.640Z,23.42
2022-08-05T09:50:44.510Z,23.38
2022-08-05T09:53:23.185Z,23.44
2022-08-05T09:56:04.020Z,23.54
2022-08-05T09:58:32.912Z,23.55
2022-08-05T10:01:15.437Z,23.53
2022-08-05T10:04:17.541Z,23.48
2022-08-05T10:06:59.639Z,23.43
2022-08-05T10:09:29.829Z,23.47
2022-08-05T10:12:18.797Z,23.38
2022-08-05T10:15:21.795Z,23.37
2022-08-05T10:18:17.426Z,23.23
2022-08-05T10:20:48.757Z,23.23
2022-08-05T10:23:55.550Z,23.24
2022-08-05T10:26:14.986Z,23.23
2022-08-05T10:28:46.415Z,23.21
2022-08-05T10:32:47.177Z,23.14
2022-08-05T10:34:03.957Z,23.12
2022-08-05T10:36:38.273Z,23.11
2022-08-05T10:40:03.097Z,23.10
2022-08-05T10:42:33.413Z,23.16
2022-08-05T10:45:20.932Z,23.12
2022-08-05T10:48:29.865Z,23.13
2022-08-05T10:50:59.658Z,23.05
2022-08-05T10:53:58.583Z,22.99
2022-08-05T10:56:55.983Z,22.96
2022-08-05T11:00:03.437Z,22.93
2022-08-05T11:02:37.948Z,22.97
2022-08-05T11:05:10.641Z,23.05
2022-08-05T11:08:01.733Z,23.15
2022-08-05T11:11:00.042Z,23.27
2022-08-05T11:13:54.956Z,23.35
2022-08-05T11:16:33.736Z,23.36
2022-08-05T11:20:11.121Z,23.40
2022-08-05T11:22:49.800Z,23.28
2022-08-05T11:26:06.222Z,23.20
2022-08-05T11:28:26.857Z,23.22
2022-08-05T11:31:06.585Z,23.22
2022-08-05T11:33:52.309Z,23.29
2022-08-05T11:36:42.032Z,23.37
2022-08-05T11:39:14.676Z,23.38
2022-08-05T11:42:01.092Z,23.33
2022-08-05T11:44:53.891Z,23.22
2022-08-05T11:47:48.777Z,23.18
2022-08-05T11:50:14.304Z,23.25
2022-08-05T11:52:44.018Z,23.37
2022-08-05T11:55:16.467Z,23.39
2022-08-05T11:58:10.061Z,23.29
2022-08-05T12:00:38.446Z,23.30
2022-08-05T12:03:29.651Z,23.21
2022-08-05T12:06:03.260Z,23.19
2022-08-05T12:08:33.797Z,23.17
2022-08-05T12:11:05.658Z,23.12
2022-08-05T12:13:48.770Z,23.14
2022-08-05T12:16:25.705Z,23.22
2022-08-05T12:18:55.777Z,23.25
2022-08-05T12:21:39.119Z,23.19
2022-08-05T12:24:11.252Z,23.10
2022-08-05T12:26:46.517Z,23.06
2022-08-05T12:29:22.998Z,22.98
2022-08-05T12:31:54.677Z,22.94
2022-08-05T12:34:32.749Z,22.80
2022-08-05T12:37:10.693Z,22.85
2022-08-05T12:39:39.893Z,22.80
2022-08-05T12:42:16.054Z,22.84
2022-08-05T12:44:46.003Z,22.78
2022-08-05T12:47:31.020Z,22.74
2022-08-05T12:50:04.782Z,22.68
2022-08-05T12:52:42.448Z,22.59
2022-08-05T12:55:22.075Z,22.70
2022-08-05T12:58:48.634Z,22.76
2022-08-05T13:02:04.164Z,22.74
2022-08-05T13:03:41.354Z,22.61
2022-08-05T13:06:17.719Z,22.50
2022-08-05T13:08:52.283Z,22.47
2022-08-05T13:12:03.134Z,22.25
2022-08-05T13:14:36.677Z,22.30
2022-08-05T13:17:16.448Z,22.30
2022-08-05T13:20:11.491Z,22.23
2022-08-05T13:22:43.363Z,22.21
2022-08-05T13:25:19.231Z,22.19
2022-08-05T13:27:56.168Z,22.05
2022-08-05T13:30:34.254Z,22.23
2022-08-05T13:33:02.617Z,22.08
2022-08-05T13:35:42.957Z,22.19
2022-08-05T13:38:28.160Z,22.00
2022-08-05T13:41:00.520Z,22.08
2022-08-05T13:43:43.962Z,22.07
2022-08-05T13:46:16.185Z,21.92
2022-08-05T13:48:58.389Z,21.89
2022-08-05T13:51:40.193Z,21.89
2022-08-05T13:54:13.676Z,21.76
2022-08-05T13:56:51.656Z,21.89
2022-08-05T13:59:24.840Z,21.84
2022-08-05T14:01:57.968Z,21.76
2022-08-05T14:04:55.616Z,21.79
2022-08-05T14:08:00.907Z,21.82
2022-08-05T14:10:28.696Z,21.81
2022-08-05T14:12:59.755Z,21.89
2022-08-05T14:16:07.758Z,21.90
2022-08-05T14:18:18.291Z,21.88
2022-08-05T14:20:54.419Z,21.90
2022-08-05T14:23:26.047Z,21.83
2022-08-05T14:25:58.490Z,21.95
2022-08-05T14:28:28.806Z,21.98
2022-08-05T14:30:58.300Z,21.98
2022-08-05T14:33:25.872Z,21.95
2022-08-05T14:35:54.504Z,21.75
2022-08-05T14:38:32.788Z,21.77
2022-08-05T14:41:07.640Z,21.82
2022-08-05T14:44:02.107Z,21.82
2022-08-05T14:46:28.741Z,21.82
2022-08-05T14:49:06.235Z,21.80
2022-08-05T14:51:39.010Z,21.67
2022-08-05T14:54:28.255Z,21.57
2022-08-05T14:56:59.492Z,21.46
2022-08-05T14:59:29.364Z,21.59
2022-08-05T15:01:58.323Z,21.48
2022-08-05T15:04:28.983Z,21.41
2022-08-05T15:06:56.630Z,21.28
2022-08-05T15:09:52.750Z,21.19
2022-08-05T15:12:16.714Z,20.94
2022-08-05T15:14:50.274Z,20.98
2022-08-05T15:17:47.303Z,20.97
2022-08-05T15:20:15.537Z,21.09
2022-08-05T15:22:54.410Z,21.09
2022-08-05T15:25:41.103Z,21.11
2022-08-05T15:28:15.644Z,21.18
2022-08-05T15:30:46.238Z,21.25
2022-08-05T15:33:56.734Z,21.25
2022-08-05T15:36:06.070Z,21.20
2022-08-05T15:38:44.806Z,21.20
2022-08-05T15:41:21.998Z,21.22
2022-08-05T15:43:54.901Z,21.26
2022-08-05T15:46:24.465Z,21.23
2022-08-05T15:48:58.750Z,21.16
2022-08-05T15:52:13.717Z,21.21
2022-08-05T15:54:17.577Z,21.17
2022-08-05T15:56:44.738Z,21.20
2022-08-05T15:59:21.774Z,21.22
2022-08-05T16:01:52.526Z,21.17
2022-08-05T16:04:25.655Z,21.34
2022-08-05T16:06:55.607Z,21.32
2022-08-05T16:09:25.197Z,21.38
2022-08-05T16:11:54.166Z,21.46
2022-08-05T16:14:22.974Z,21.61
2022-08-05T16:16:50.596Z,21.73
2022-08-05T16:19:25.270Z,21.76
2022-08-05T16:22:10.459Z,21.78
2022-08-05T16:24:41.145Z,21.78
2022-08-05T16:27:18.470Z,21.95
2022-08-05T16:29:50.752Z,22.03
2022-08-05T16:32:23.386Z,22.16
2022-08-05T16:34:55.738Z,22.25
2022-08-05T16:38:15.172Z,22.17
2022-08-05T16:40:24.717Z,22.20
2022-08-05T16:42:53.952Z,22.22
2022-08-05T16:46:05.101Z,22.22
2022-08-05T16:48:10.377Z,22.21
2022-08-05T16:50:37.901Z,22.25
2022-08-05T16:53:12.583Z,22.27
2022-08-05T16:55:49.897Z,22.26
2022-08-05T16:58:19.753Z,22.24
2022-08-05T17:00:48.210Z,22.23
2022-08-05T17:03:20.548Z,22.25
2022-08-05T17:05:53.717Z,22.28
2022-08-05T17:08:36.176Z,22.33
2022-08-05T17:11:12.759Z,22.32
2022-08-05T17:13:46.249Z,22.39
2022-08-05T17:16:33.667Z,22.46
2022-08-05T17:19:01.517Z,22.44
2022-08-05T17:21:36.217Z,22.41
2022-08-05T17:24:30.327Z,22.33
2022-08-05T17:26:58.201Z,22.40
2022-08-05T17:29:33.268Z,22.44
2022-08-05T17:32:11.346Z,22.48
2022-08-05T17:34:47.918Z,22.47
2022-08-05T17:37:39.755Z,22.56
2022-08-05T17:40:12.276Z,22.55
2022-08-05T17:42:51.369Z,22.52
2022-08-05T17:45:24.877Z,22.45
2022-08-05T17:47:55.975Z,22.34
2022-08-05T17:50:30.319Z,22.28
2022-08-05T17:53:05.378Z,22.24
2022-08-05T17:55:37.768Z,22.25
2022-08-05T17:58:13.637Z,22.24
2022-08-05T18:00:47.732Z,22.18
2022-08-05T18:06:12.286Z,22.10
2022-08-05T18:08:45.796Z,22.06
2022-08-05T18:11:24.165Z,22.02
2022-08-05T18:14:03.379Z,21.90
2022-08-05T18:16:32.647Z,21.90
2022-08-05T18:19:00.719Z,21.88
2022-08-05T18:22:07.850Z,21.83
2022-08-05T18:24:16.055Z,21.73
2022-08-05T18:26:43.800Z,21.74
2022-08-05T18:29:11.654Z,21.67
2022-08-05T18:31:42.900Z,21.64
2022-08-05T18:34:12.638Z,21.62
2022-08-05T18:36:41.267Z,21.57
2022-08-05T18:39:42.293Z,21.59
2022-08-05T18:42:06.367Z,21.53
2022-08-05T18:44:49.209Z,21.53
2022-08-05T18:47:26.469Z,21.55
2022-08-05T18:50:15.421Z,21.51
2022-08-05T18:52:50.887Z,21.53
2022-08-05T18:55:21.492Z,21.42
2022-08-05T18:57:52.756Z,21.52
2022-08-05T19:00:28.432Z,21.49
2022-08-05T19:03:03.976Z,21.51
2022-08-05T19:06:12.226Z,21.51
2022-08-05T19:08:20.183Z,21.49
2022-08-05T19:10:50.186Z,21.50
2022-08-05T19:13:19.757Z,21.48
2022-08-05T19:15:59.109Z,21.51
2022-08-05T19:18:30.890Z,21.48
2022-08-05T19:20:59.668Z,21.41
2022-08-05T19:24:07.210Z,21.39
2022-08-05T19:26:16.524Z,21.32
2022-08-05T19:28:44.051Z,21.34
2022-08-05T19:31:15.034Z,21.31
2022-08-05T19:33:48.435Z,21.28
2022-08-05T19:36:25.213Z,21.24
2022-08-05T19:38:55.169Z,21.24
2022-08-05T19:41:58.278Z,21.21
2022-08-05T19:44:18.810Z,21.18
2022-08-05T19:46:47.030Z,21.12
2022-08-05T19:49:24.932Z,21.04
2022-08-05T19:52:05.040Z,20.97
2022-08-05T19:54:37.250Z,20.78
2022-08-05T19:57:09.270Z,21.01
2022-08-05T19:59:56.225Z,21.01
2022-08-05T20:02:30.364Z,20.99
2022-08-05T20:04:59.823Z,20.99
2022-08-05T20:07:46.887Z,20.98
2022-08-05T20:10:19.380Z,20.99
2022-08-05T20:12:49.589Z,20.64
2022-08-05T20:15:48.972Z,20.85
2022-08-05T20:18:10.723Z,20.88
2022-08-05T20:20:57.051Z,20.87
2022-08-05T20:23:39.431Z,20.85
2022-08-05T20:26:15.944Z,20.76
2022-08-05T20:28:50.360Z,20.73
2022-08-05T20:31:21.567Z,20.50
2022-08-05T20:33:51.211Z,20.61
2022-08-05T20:36:19.850Z,20.56
2022-08-05T20:38:53.779Z,20.53
2022-08-05T20:41:43.859Z,20.47
2022-08-05T20:44:17.102Z,20.50
2022-08-05T20:46:48.093Z,20.46
2022-08-05T20:49:18.442Z,20.33
2022-08-05T20:51:53.669Z,20.29
2022-08-05T20:54:25.890Z,20.28
2022-08-05T20:57:11.177Z,20.26
2022-08-05T20:59:46.219Z,20.26
2022-08-05T21:02:29.664Z,20.21
2022-08-05T21:04:56.804Z,20.18
2022-08-05T21:07:24.814Z,20.16
2022-08-05T21:10:13.845Z,20.17
2022-08-05T21:12:41.123Z,20.16
2022-08-05T21:15:25.865Z,20.04
2022-08-05T21:18:02.247Z,20.04
2022-08-05T21:20:32.817Z,20.03
2022-08-05T21:23:01.494Z,20.03
2022-08-05T21:25:33.922Z,20.01
2022-08-05T21:28:03.235Z,19.91
2022-08-05T21:30:31.659Z,19.75
2022-08-05T21:32:59.750Z,19.75
2022-08-05T21:35:55.428Z,19.66
2022-08-05T21:38:18.996Z,19.57
2022-08-05T21:40:46.153Z,19.70
2022-08-05T21:43:24.339Z,19.69
2022-08-05T21:45:57.390Z,19.61
2022-08-05T21:48:25.245Z,19.63
2022-08-05T21:50:54.521Z,19.59
2022-08-05T21:53:27.286Z,19.58
2022-08-05T21:56:05.517Z,19.62
2022-08-05T21:58:42.117Z,19.61
2022-08-05T22:01:10.653Z,19.59
2022-08-05T22:03:52.494Z,19.60
2022-08-05T22:06:33.550Z,19.59
2022-08-05T22:09:15.145Z,19.57
2022-08-05T22:11:48.038Z,19.62
2022-08-05T22:14:34.343Z,19.61
2022-08-05T22:17:07.194Z,19.55
2022-08-05T22:20:01.888Z,19.58
2022-08-05T22:22:27.945Z,19.55
2022-08-05T22:25:18.049Z,19.48
2022-08-05T22:28:11.130Z,19.34
2022-08-05T22:30:44.250Z,19.29
2022-08-05T22:33:55.716Z,19.22
2022-08-05T22:36:15.160Z,19.25
2022-08-05T22:38:48.185Z,19.27
2022-08-05T22:41:26.369Z,19.26
2022-08-05T22:44:07.931Z,19.21
2022-08-05T22:46:39.750Z,19.08
2022-08-05T22:49:12.494Z,19.15
2022-08-05T22:52:05.693Z,19.14
2022-08-05T22:54:36.581Z,19.14
2022-08-05T22:57:06.035Z,19.07
2022-08-05T22:59:48.596Z,19.11
2022-08-05T23:02:29.765Z,19.13
2022-08-05T23:05:01.879Z,19.10
2022-08-05T23:07:45.203Z,19.02
2022-08-05T23:10:20.274Z,19.01
2022-08-05T23:12:51.215Z,19.02
2022-08-05T23:15:18.851Z,19.04
2022-08-05T23:18:00.409Z,19.04
2022-08-05T23:20:37.056Z,19.00
2022-08-05T23:23:08.405Z,19.09
2022-08-05T23:25:53.470Z,19.10
2022-08-05T23:28:28.699Z,19.06
2022-08-05T23:31:03.731Z,19.06
2022-08-05T23:34:03.048Z,19.10
2022-08-05T23:36:38.525Z,19.15
2022-08-05T23:39:07.806Z,19.19
2022-08-05T23:41:40.957Z,19.20
2022-08-05T23:44:16.697Z,19.16
2022-08-05T23:46:44.280Z,19.15
2022-08-05T23:49:16.506Z,19.15
2022-08-05T23:52:03.280Z,19.11
2022-08-05T23:54:38.047Z,19.12
2022-08-05T23:57:07.688Z,19.14
